Terminal Aerodrome Forecast
Issued by NWS

Home | Current Version | Previous Version | Text Only | Print | Product List | Glossary On
Versions: 1 2 3 4 5 6 7 8 9 10 11 12 13 14 15 16
312
FTUS43 KPAH 201120
TAFCGI
TAF
KCGI 201120Z 2012/2112 15004KT P6SM SCT035 BKN250
     FM201500 20010KT P6SM SCT040 BKN100
      TEMPO 2016/2020 BKN040
     FM210300 24004KT P6SM OVC030
     FM210800 30007KT P6SM VCSH OVC020=

USA.gov is the U.S. government's official web portal to all federal, state and local government web resources and services.